sensor_id;sensor_type;location;lat;lon;timestamp;temperature;humidity
53904;DHT22;39812;52.430;16.936;2022-10-14T00:01:36;8.80;99.90
53904;DHT22;39812;52.430;16.936;2022-10-14T00:04:02;8.80;99.90
53904;DHT22;39812;52.430;16.936;2022-10-14T00:06:30;8.70;99.90
53904;DHT22;39812;52.430;16.936;2022-10-14T00:08:59;8.80;99.90
53904;DHT22;39812;52.430;16.936;2022-10-14T00:11:27;8.70;99.90
53904;DHT22;39812;52.430;16.936;2022-10-14T00:13:55;8.80;99.90
53904;DHT22;39812;52.430;16.936;2022-10-14T00:16:34;8.80;99.90
53904;DHT22;39812;52.430;16.936;2022-10-14T00:19:00;8.80;99.90
53904;DHT22;39812;52.430;16.936;2022-10-14T00:21:27;8.80;99.90
53904;DHT22;39812;52.430;16.936;2022-10-14T00:23:53;8.80;99.90
53904;DHT22;39812;52.430;16.936;2022-10-14T00:26:21;8.80;99.90
53904;DHT22;39812;52.430;16.936;2022-10-14T00:28:47;8.70;99.90
53904;DHT22;39812;52.430;16.936;2022-10-14T00:31:14;8.80;99.90
53904;DHT22;39812;52.430;16.936;2022-10-14T00:33:39;8.70;99.90
53904;DHT22;39812;52.430;16.936;2022-10-14T00:36:05;8.70;99.90
53904;DHT22;39812;52.430;16.936;2022-10-14T00:38:32;8.60;99.90
53904;DHT22;39812;52.430;16.936;2022-10-14T00:40:57;8.60;99.90
53904;DHT22;39812;52.430;16.936;2022-10-14T00:43:24;8.50;99.90
53904;DHT22;39812;52.430;16.936;2022-10-14T00:45:50;8.50;99.90
53904;DHT22;39812;52.430;16.936;2022-10-14T00:48:18;8.50;99.90
53904;DHT22;39812;52.430;16.936;2022-10-14T00:50:46;8.40;99.90
53904;DHT22;39812;52.430;16.936;2022-10-14T00:53:13;8.40;99.90
53904;DHT22;39812;52.430;16.936;2022-10-14T00:55:39;8.40;99.90
53904;DHT22;39812;52.430;16.936;2022-10-14T00:58:06;8.30;99.90
53904;DHT22;39812;52.430;16.936;2022-10-14T01:00:32;8.20;99.90
53904;DHT22;39812;52.430;16.936;2022-10-14T01:02:58;8.10;99.90
53904;DHT22;39812;52.430;16.936;2022-10-14T01:05:30;8.10;99.90
53904;DHT22;39812;52.430;16.936;2022-10-14T01:08:26;8.10;99.90
53904;DHT22;39812;52.430;16.936;2022-10-14T01:13:28;8.00;99.90
53904;DHT22;39812;52.430;16.936;2022-10-14T01:18:59;7.90;99.90
53904;DHT22;39812;52.430;16.936;2022-10-14T01:21:39;7.90;99.90
53904;DHT22;39812;52.430;16.936;2022-10-14T01:24:11;8.00;99.90
53904;DHT22;39812;52.430;16.936;2022-10-14T01:26:47;8.10;99.90
53904;DHT22;39812;52.430;16.936;2022-10-14T01:29:46;8.20;99.90
53904;DHT22;39812;52.430;16.936;2022-10-14T01:32:26;8.50;99.90
53904;DHT22;39812;52.430;16.936;2022-10-14T01:35:20;8.60;99.90
53904;DHT22;39812;52.430;16.936;2022-10-14T01:37:52;8.60;99.90
53904;DHT22;39812;52.430;16.936;2022-10-14T01:40:28;8.60;99.90
53904;DHT22;39812;52.430;16.936;2022-10-14T01:42:58;8.70;99.90
53904;DHT22;39812;52.430;16.936;2022-10-14T01:45:26;8.80;99.90
53904;DHT22;39812;52.430;16.936;2022-10-14T01:47:54;8.80;99.90
53904;DHT22;39812;52.430;16.936;2022-10-14T01:50:23;8.90;99.90
53904;DHT22;39812;52.430;16.936;2022-10-14T01:52:54;9.00;99.90
53904;DHT22;39812;52.430;16.936;2022-10-14T01:55:24;9.10;99.90
53904;DHT22;39812;52.430;16.936;2022-10-14T01:57:52;9.20;99.90
53904;DHT22;39812;52.430;16.936;2022-10-14T02:00:20;9.30;99.90
53904;DHT22;39812;52.430;16.936;2022-10-14T02:02:46;9.40;99.90
53904;DHT22;39812;52.430;16.936;2022-10-14T02:05:29;9.50;99.90
53904;DHT22;39812;52.430;16.936;2022-10-14T02:08:02;9.50;99.90
53904;DHT22;39812;52.430;16.936;2022-10-14T02:10:33;9.60;99.90
53904;DHT22;39812;52.430;16.936;2022-10-14T02:13:33;9.60;99.90
53904;DHT22;39812;52.430;16.936;2022-10-14T02:16:23;9.60;99.90
53904;DHT22;39812;52.430;16.936;2022-10-14T02:19:11;9.50;99.90
53904;DHT22;39812;52.430;16.936;2022-10-14T02:21:46;9.50;99.90
53904;DHT22;39812;52.430;16.936;2022-10-14T02:24:23;9.40;99.90
53904;DHT22;39812;52.430;16.936;2022-10-14T02:26:54;9.40;99.90
53904;DHT22;39812;52.430;16.936;2022-10-14T02:29:22;9.50;99.90
53904;DHT22;39812;52.430;16.936;2022-10-14T02:31:50;9.50;99.90
53904;DHT22;39812;52.430;16.936;2022-10-14T02:34:18;9.50;99.90
53904;DHT22;39812;52.430;16.936;2022-10-14T02:36:45;9.50;99.90
53904;DHT22;39812;52.430;16.936;2022-10-14T02:39:14;9.50;99.90
53904;DHT22;39812;52.430;16.936;2022-10-14T02:41:42;9.40;99.90
53904;DHT22;39812;52.430;16.936;2022-10-14T02:44:07;9.40;99.90
53904;DHT22;39812;52.430;16.936;2022-10-14T02:46:33;9.40;99.90
53904;DHT22;39812;52.430;16.936;2022-10-14T02:48:59;9.30;99.90
53904;DHT22;39812;52.430;16.936;2022-10-14T02:51:25;9.30;99.90
53904;DHT22;39812;52.430;16.936;2022-10-14T02:53:50;9.10;99.90
53904;DHT22;39812;52.430;16.936;2022-10-14T02:56:18;9.00;99.90
53904;DHT22;39812;52.430;16.936;2022-10-14T02:58:43;8.80;99.90
53904;DHT22;39812;52.430;16.936;2022-10-14T03:01:09;8.80;99.90
53904;DHT22;39812;52.430;16.936;2022-10-14T03:03:35;8.70;99.90
53904;DHT22;39812;52.430;16.936;2022-10-14T03:06:00;8.60;99.90
53904;DHT22;39812;52.430;16.936;2022-10-14T03:08:26;8.60;99.90
53904;DHT22;39812;52.430;16.936;2022-10-14T03:10:51;8.60;99.90
53904;DHT22;39812;52.430;16.936;2022-10-14T03:13:17;8.60;99.90
53904;DHT22;39812;52.430;16.936;2022-10-14T03:15:42;8.50;99.90
53904;DHT22;39812;52.430;16.936;2022-10-14T03:18:08;8.50;99.90
53904;DHT22;39812;52.430;16.936;2022-10-14T03:20:33;8.50;99.90
53904;DHT22;39812;52.430;16.936;2022-10-14T03:22:59;8.50;99.90
53904;DHT22;39812;52.430;16.936;2022-10-14T03:25:24;8.60;99.90
53904;DHT22;39812;52.430;16.936;2022-10-14T03:27:50;8.60;99.90
53904;DHT22;39812;52.430;16.936;2022-10-14T03:30:15;8.60;99.90
53904;DHT22;39812;52.430;16.936;2022-10-14T03:32:41;8.60;99.90
53904;DHT22;39812;52.430;16.936;2022-10-14T03:35:07;8.70;99.90
53904;DHT22;39812;52.430;16.936;2022-10-14T03:37:32;8.70;99.90
53904;DHT22;39812;52.430;16.936;2022-10-14T03:39:58;8.60;99.90
53904;DHT22;39812;52.430;16.936;2022-10-14T03:42:23;8.70;99.90
53904;DHT22;39812;52.430;16.936;2022-10-14T03:44:49;8.70;99.90
53904;DHT22;39812;52.430;16.936;2022-10-14T03:47:15;8.70;99.90
53904;DHT22;39812;52.430;16.936;2022-10-14T03:49:40;8.60;99.90
53904;DHT22;39812;52.430;16.936;2022-10-14T03:52:06;8.60;99.90
53904;DHT22;39812;52.430;16.936;2022-10-14T03:54:31;8.60;99.90
53904;DHT22;39812;52.430;16.936;2022-10-14T03:56:57;8.60;99.90
53904;DHT22;39812;52.430;16.936;2022-10-14T03:59:22;8.70;99.90
53904;DHT22;39812;52.430;16.936;2022-10-14T04:01:48;8.80;99.90
53904;DHT22;39812;52.430;16.936;2022-10-14T04:04:13;8.80;99.90
53904;DHT22;39812;52.430;16.936;2022-10-14T04:06:39;8.80;99.90
53904;DHT22;39812;52.430;16.936;2022-10-14T04:09:04;8.80;99.90
53904;DHT22;39812;52.430;16.936;2022-10-14T04:11:30;8.90;99.90
53904;DHT22;39812;52.430;16.936;2022-10-14T04:13:59;8.90;99.90
53904;DHT22;39812;52.430;16.936;2022-10-14T04:16:25;8.90;99.90
53904;DHT22;39812;52.430;16.936;2022-10-14T04:18:51;8.90;99.90
53904;DHT22;39812;52.430;16.936;2022-10-14T04:21:17;8.90;99.90
53904;DHT22;39812;52.430;16.936;2022-10-14T04:23:42;8.90;99.90
53904;DHT22;39812;52.430;16.936;2022-10-14T04:26:08;8.90;99.90
53904;DHT22;39812;52.430;16.936;2022-10-14T04:28:35;8.90;99.90
53904;DHT22;39812;52.430;16.936;2022-10-14T04:31:01;8.90;99.90
53904;DHT22;39812;52.430;16.936;2022-10-14T04:33:27;8.90;99.90
53904;DHT22;39812;52.430;16.936;2022-10-14T04:35:59;9.00;99.90
53904;DHT22;39812;52.430;16.936;2022-10-14T04:38:26;9.00;99.90
53904;DHT22;39812;52.430;16.936;2022-10-14T04:40:51;9.00;99.90
53904;DHT22;39812;52.430;16.936;2022-10-14T04:43:17;9.00;99.90
53904;DHT22;39812;52.430;16.936;2022-10-14T04:45:42;9.00;99.90
53904;DHT22;39812;52.430;16.936;2022-10-14T04:48:08;9.00;99.90
53904;DHT22;39812;52.430;16.936;2022-10-14T04:50:33;9.00;99.90
53904;DHT22;39812;52.430;16.936;2022-10-14T04:52:59;8.90;99.90
53904;DHT22;39812;52.430;16.936;2022-10-14T04:55:24;8.80;99.90
53904;DHT22;39812;52.430;16.936;2022-10-14T04:57:50;8.80;99.90
53904;DHT22;39812;52.430;16.936;2022-10-14T05:00:15;8.70;99.90
53904;DHT22;39812;52.430;16.936;2022-10-14T05:02:41;8.70;99.90
53904;DHT22;39812;52.430;16.936;2022-10-14T05:05:07;8.60;99.90
53904;DHT22;39812;52.430;16.936;2022-10-14T05:07:33;8.50;99.90
53904;DHT22;39812;52.430;16.936;2022-10-14T05:09:59;8.50;99.90
53904;DHT22;39812;52.430;16.936;2022-10-14T05:12:26;8.50;99.90
53904;DHT22;39812;52.430;16.936;2022-10-14T05:14:51;8.50;99.90
53904;DHT22;39812;52.430;16.936;2022-10-14T05:17:17;8.40;99.90
53904;DHT22;39812;52.430;16.936;2022-10-14T05:19:42;8.40;99.90
53904;DHT22;39812;52.430;16.936;2022-10-14T05:22:08;8.40;99.90
53904;DHT22;39812;52.430;16.936;2022-10-14T05:24:33;8.40;99.90
53904;DHT22;39812;52.430;16.936;2022-10-14T05:26:59;8.40;99.90
53904;DHT22;39812;52.430;16.936;2022-10-14T05:29:24;8.50;99.90
53904;DHT22;39812;52.430;16.936;2022-10-14T05:31:50;8.50;99.90
53904;DHT22;39812;52.430;16.936;2022-10-14T05:34:15;8.60;99.90
53904;DHT22;39812;52.430;16.936;2022-10-14T05:36:40;8.70;99.90
53904;DHT22;39812;52.430;16.936;2022-10-14T05:39:07;8.80;99.90
53904;DHT22;39812;52.430;16.936;2022-10-14T05:41:32;8.80;99.90
53904;DHT22;39812;52.430;16.936;2022-10-14T05:43:58;8.90;99.90
53904;DHT22;39812;52.430;16.936;2022-10-14T05:46:23;9.00;99.90
53904;DHT22;39812;52.430;16.936;2022-10-14T05:48:49;8.90;99.90
53904;DHT22;39812;52.430;16.936;2022-10-14T05:51:14;8.90;99.90
53904;DHT22;39812;52.430;16.936;2022-10-14T05:53:40;8.80;99.90
53904;DHT22;39812;52.430;16.936;2022-10-14T05:56:08;8.70;99.90
53904;DHT22;39812;52.430;16.936;2022-10-14T05:58:34;8.60;99.90
53904;DHT22;39812;52.430;16.936;2022-10-14T06:01:01;8.60;99.90
53904;DHT22;39812;52.430;16.936;2022-10-14T06:03:27;8.50;99.90
53904;DHT22;39812;52.430;16.936;2022-10-14T06:05:52;8.60;99.90
53904;DHT22;39812;52.430;16.936;2022-10-14T06:08:18;8.60;99.90
53904;DHT22;39812;52.430;16.936;2022-10-14T06:10:44;8.50;99.90
53904;DHT22;39812;52.430;16.936;2022-10-14T06:13:10;8.70;99.90
53904;DHT22;39812;52.430;16.936;2022-10-14T06:15:35;8.90;99.90
53904;DHT22;39812;52.430;16.936;2022-10-14T06:18:01;9.20;99.90
53904;DHT22;39812;52.430;16.936;2022-10-14T06:20:26;9.50;99.90
53904;DHT22;39812;52.430;16.936;2022-10-14T06:22:52;9.70;99.90
53904;DHT22;39812;52.430;16.936;2022-10-14T06:25:18;9.90;99.90
53904;DHT22;39812;52.430;16.936;2022-10-14T06:27:43;10.00;99.90
53904;DHT22;39812;52.430;16.936;2022-10-14T06:30:10;10.20;99.90
53904;DHT22;39812;52.430;16.936;2022-10-14T06:32:35;10.30;99.90
53904;DHT22;39812;52.430;16.936;2022-10-14T06:35:01;10.40;99.90
53904;DHT22;39812;52.430;16.936;2022-10-14T06:37:26;10.50;99.90
53904;DHT22;39812;52.430;16.936;2022-10-14T06:39:52;10.80;99.90
53904;DHT22;39812;52.430;16.936;2022-10-14T06:42:17;10.90;99.90
53904;DHT22;39812;52.430;16.936;2022-10-14T06:44:43;11.00;99.90
53904;DHT22;39812;52.430;16.936;2022-10-14T06:47:08;11.00;99.90
53904;DHT22;39812;52.430;16.936;2022-10-14T06:49:34;11.10;99.90
53904;DHT22;39812;52.430;16.936;2022-10-14T06:51:59;11.20;99.90
53904;DHT22;39812;52.430;16.936;2022-10-14T06:54:25;11.10;99.90
53904;DHT22;39812;52.430;16.936;2022-10-14T06:56:50;11.00;99.90
53904;DHT22;39812;52.430;16.936;2022-10-14T06:59:16;11.00;99.90
53904;DHT22;39812;52.430;16.936;2022-10-14T07:01:41;11.10;99.90
53904;DHT22;39812;52.430;16.936;2022-10-14T07:04:07;11.20;99.90
53904;DHT22;39812;52.430;16.936;2022-10-14T07:06:33;11.40;99.90
53904;DHT22;39812;52.430;16.936;2022-10-14T07:09:00;11.40;99.90
53904;DHT22;39812;52.430;16.936;2022-10-14T07:11:25;11.40;99.90
53904;DHT22;39812;52.430;16.936;2022-10-14T07:13:51;11.30;99.90
53904;DHT22;39812;52.430;16.936;2022-10-14T07:16:16;11.20;99.90
53904;DHT22;39812;52.430;16.936;2022-10-14T07:18:42;11.20;99.90
53904;DHT22;39812;52.430;16.936;2022-10-14T07:21:07;11.30;99.90
53904;DHT22;39812;52.430;16.936;2022-10-14T07:23:33;11.30;99.90
53904;DHT22;39812;52.430;16.936;2022-10-14T07:25:59;11.30;99.90
53904;DHT22;39812;52.430;16.936;2022-10-14T07:28:25;11.30;99.90
53904;DHT22;39812;52.430;16.936;2022-10-14T07:31:09;11.30;99.90
53904;DHT22;39812;52.430;16.936;2022-10-14T07:33:37;11.40;99.90
53904;DHT22;39812;52.430;16.936;2022-10-14T07:36:05;11.50;99.90
53904;DHT22;39812;52.430;16.936;2022-10-14T07:38:31;11.50;99.90
53904;DHT22;39812;52.430;16.936;2022-10-14T07:41:05;11.40;99.90
53904;DHT22;39812;52.430;16.936;2022-10-14T07:43:32;11.40;99.90
53904;DHT22;39812;52.430;16.936;2022-10-14T07:46:03;11.40;99.90
53904;DHT22;39812;52.430;16.936;2022-10-14T07:48:32;11.30;99.90
53904;DHT22;39812;52.430;16.936;2022-10-14T07:50:58;11.30;99.90
53904;DHT22;39812;52.430;16.936;2022-10-14T07:53:24;11.30;99.90
53904;DHT22;39812;52.430;16.936;2022-10-14T07:55:50;11.30;99.90
53904;DHT22;39812;52.430;16.936;2022-10-14T07:58:20;11.40;99.90
53904;DHT22;39812;52.430;16.936;2022-10-14T08:00:47;11.50;99.90
53904;DHT22;39812;52.430;16.936;2022-10-14T08:03:13;11.80;99.90
53904;DHT22;39812;52.430;16.936;2022-10-14T08:05:39;12.00;99.90
53904;DHT22;39812;52.430;16.936;2022-10-14T08:08:04;12.20;99.90
53904;DHT22;39812;52.430;16.936;2022-10-14T08:10:30;12.30;99.90
53904;DHT22;39812;52.430;16.936;2022-10-14T08:12:56;12.60;99.90
53904;DHT22;39812;52.430;16.936;2022-10-14T08:15:22;12.80;99.90
53904;DHT22;39812;52.430;16.936;2022-10-14T08:17:47;12.80;99.90
53904;DHT22;39812;52.430;16.936;2022-10-14T08:20:13;12.70;99.90
53904;DHT22;39812;52.430;16.936;2022-10-14T08:22:38;12.70;99.90
53904;DHT22;39812;52.430;16.936;2022-10-14T08:25:04;12.50;99.90
53904;DHT22;39812;52.430;16.936;2022-10-14T08:27:30;12.50;99.90
53904;DHT22;39812;52.430;16.936;2022-10-14T08:29:55;12.60;99.90
53904;DHT22;39812;52.430;16.936;2022-10-14T08:32:20;12.60;99.90
53904;DHT22;39812;52.430;16.936;2022-10-14T08:34:47;12.70;99.90
53904;DHT22;39812;52.430;16.936;2022-10-14T08:37:12;12.80;99.90
53904;DHT22;39812;52.430;16.936;2022-10-14T08:39:38;12.90;99.90
53904;DHT22;39812;52.430;16.936;2022-10-14T08:42:26;13.00;99.90
53904;DHT22;39812;52.430;16.936;2022-10-14T08:45:30;13.10;99.90
53904;DHT22;39812;52.430;16.936;2022-10-14T08:47:47;13.30;99.90
53904;DHT22;39812;52.430;16.936;2022-10-14T08:50:22;13.50;99.90
53904;DHT22;39812;52.430;16.936;2022-10-14T08:52:54;13.70;99.90
53904;DHT22;39812;52.430;16.936;2022-10-14T08:55:33;14.00;99.90
53904;DHT22;39812;52.430;16.936;2022-10-14T08:58:05;14.00;99.90
53904;DHT22;39812;52.430;16.936;2022-10-14T09:00:32;14.10;99.90
53904;DHT22;39812;52.430;16.936;2022-10-14T09:02:59;14.10;99.90
53904;DHT22;39812;52.430;16.936;2022-10-14T09:05:26;14.10;99.90
53904;DHT22;39812;52.430;16.936;2022-10-14T09:07:54;14.10;99.90
53904;DHT22;39812;52.430;16.936;2022-10-14T09:10:32;14.20;99.90
53904;DHT22;39812;52.430;16.936;2022-10-14T09:13:07;14.10;99.90
53904;DHT22;39812;52.430;16.936;2022-10-14T09:15:39;14.10;99.90
53904;DHT22;39812;52.430;16.936;2022-10-14T09:18:26;14.00;99.90
53904;DHT22;39812;52.430;16.936;2022-10-14T09:20:55;14.10;99.90
53904;DHT22;39812;52.430;16.936;2022-10-14T09:23:23;14.20;99.90
53904;DHT22;39812;52.430;16.936;2022-10-14T09:25:56;14.40;99.90
53904;DHT22;39812;52.430;16.936;2022-10-14T09:28:32;14.60;99.90
53904;DHT22;39812;52.430;16.936;2022-10-14T09:31:01;14.80;99.90
53904;DHT22;39812;52.430;16.936;2022-10-14T09:33:27;14.90;99.90
53904;DHT22;39812;52.430;16.936;2022-10-14T09:35:53;15.00;99.90
53904;DHT22;39812;52.430;16.936;2022-10-14T09:38:19;15.00;99.90
53904;DHT22;39812;52.430;16.936;2022-10-14T09:40:52;14.90;99.90
53904;DHT22;39812;52.430;16.936;2022-10-14T09:43:21;14.90;99.90
53904;DHT22;39812;52.430;16.936;2022-10-14T09:45:56;15.00;99.90
53904;DHT22;39812;52.430;16.936;2022-10-14T09:48:38;15.30;99.90
53904;DHT22;39812;52.430;16.936;2022-10-14T09:51:28;15.80;99.90
53904;DHT22;39812;52.430;16.936;2022-10-14T09:54:02;16.10;99.90
53904;DHT22;39812;52.430;16.936;2022-10-14T09:56:33;16.40;99.90
53904;DHT22;39812;52.430;16.936;2022-10-14T09:59:02;16.50;99.90
53904;DHT22;39812;52.430;16.936;2022-10-14T10:01:36;16.40;99.90
53904;DHT22;39812;52.430;16.936;2022-10-14T10:06:59;16.60;99.90
53904;DHT22;39812;52.430;16.936;2022-10-14T10:09:25;16.80;99.90
53904;DHT22;39812;52.430;16.936;2022-10-14T10:11:52;16.90;99.90
53904;DHT22;39812;52.430;16.936;2022-10-14T10:14:27;17.00;99.90
53904;DHT22;39812;52.430;16.936;2022-10-14T10:19:39;16.70;99.90
53904;DHT22;39812;52.430;16.936;2022-10-14T10:22:20;16.60;99.90
53904;DHT22;39812;52.430;16.936;2022-10-14T10:24:51;16.40;99.90
53904;DHT22;39812;52.430;16.936;2022-10-14T10:27:23;16.50;99.90
53904;DHT22;39812;52.430;16.936;2022-10-14T10:29:49;16.50;99.90
53904;DHT22;39812;52.430;16.936;2022-10-14T10:32:33;16.70;99.90
53904;DHT22;39812;52.430;16.936;2022-10-14T10:35:19;17.20;99.90
53904;DHT22;39812;52.430;16.936;2022-10-14T10:38:03;17.60;99.90
53904;DHT22;39812;52.430;16.936;2022-10-14T10:40:38;18.10;99.90
53904;DHT22;39812;52.430;16.936;2022-10-14T10:43:19;18.50;99.90
53904;DHT22;39812;52.430;16.936;2022-10-14T10:49:25;18.30;99.60
53904;DHT22;39812;52.430;16.936;2022-10-14T10:52:05;18.30;99.40
53904;DHT22;39812;52.430;16.936;2022-10-14T10:54:43;18.50;99.10
53904;DHT22;39812;52.430;16.936;2022-10-14T10:57:41;18.50;98.90
53904;DHT22;39812;52.430;16.936;2022-10-14T11:00:13;18.90;99.20
53904;DHT22;39812;52.430;16.936;2022-10-14T11:02:50;18.90;99.00
53904;DHT22;39812;52.430;16.936;2022-10-14T11:05:45;19.10;98.80
53904;DHT22;39812;52.430;16.936;2022-10-14T11:11:31;19.40;98.00
53904;DHT22;39812;52.430;16.936;2022-10-14T11:14:27;19.30;97.80
53904;DHT22;39812;52.430;16.936;2022-10-14T11:17:14;19.30;97.70
53904;DHT22;39812;52.430;16.936;2022-10-14T11:22:39;19.20;97.20
53904;DHT22;39812;52.430;16.936;2022-10-14T11:28:25;19.20;97.70
53904;DHT22;39812;52.430;16.936;2022-10-14T11:31:11;19.00;97.20
53904;DHT22;39812;52.430;16.936;2022-10-14T11:36:59;19.70;96.90
53904;DHT22;39812;52.430;16.936;2022-10-14T11:42:51;20.00;96.60
53904;DHT22;39812;52.430;16.936;2022-10-14T11:51:16;19.40;96.90
53904;DHT22;39812;52.430;16.936;2022-10-14T11:54:13;19.20;96.90
53904;DHT22;39812;52.430;16.936;2022-10-14T11:56:43;18.60;98.40
53904;DHT22;39812;52.430;16.936;2022-10-14T11:59:22;18.70;98.60
53904;DHT22;39812;52.430;16.936;2022-10-14T12:01:56;18.80;98.40
53904;DHT22;39812;52.430;16.936;2022-10-14T12:04:33;18.80;98.50
53904;DHT22;39812;52.430;16.936;2022-10-14T12:07:04;19.00;98.40
53904;DHT22;39812;52.430;16.936;2022-10-14T12:09:37;19.40;98.10
53904;DHT22;39812;52.430;16.936;2022-10-14T12:12:08;19.50;97.60
53904;DHT22;39812;52.430;16.936;2022-10-14T12:14:40;19.50;97.40
53904;DHT22;39812;52.430;16.936;2022-10-14T12:17:16;19.30;97.60
53904;DHT22;39812;52.430;16.936;2022-10-14T12:19:43;19.40;97.50
53904;DHT22;39812;52.430;16.936;2022-10-14T12:22:17;19.20;97.60
53904;DHT22;39812;52.430;16.936;2022-10-14T12:24:49;19.10;97.90
53904;DHT22;39812;52.430;16.936;2022-10-14T12:27:17;19.20;97.80
53904;DHT22;39812;52.430;16.936;2022-10-14T12:29:45;19.20;97.90
53904;DHT22;39812;52.430;16.936;2022-10-14T12:32:29;18.60;98.60
53904;DHT22;39812;52.430;16.936;2022-10-14T12:34:57;18.70;98.70
53904;DHT22;39812;52.430;16.936;2022-10-14T12:39:53;18.90;98.50
53904;DHT22;39812;52.430;16.936;2022-10-14T12:42:57;18.60;98.60
53904;DHT22;39812;52.430;16.936;2022-10-14T12:45:28;18.70;98.70
53904;DHT22;39812;52.430;16.936;2022-10-14T12:48:11;18.80;98.60
53904;DHT22;39812;52.430;16.936;2022-10-14T12:50:40;18.80;98.50
53904;DHT22;39812;52.430;16.936;2022-10-14T12:53:22;18.70;98.70
53904;DHT22;39812;52.430;16.936;2022-10-14T12:56:00;18.70;98.60
53904;DHT22;39812;52.430;16.936;2022-10-14T12:59:03;18.80;98.80
53904;DHT22;39812;52.430;16.936;2022-10-14T13:01:30;19.10;98.20
53904;DHT22;39812;52.430;16.936;2022-10-14T13:03:58;19.20;98.30
53904;DHT22;39812;52.430;16.936;2022-10-14T13:06:27;19.50;98.00
53904;DHT22;39812;52.430;16.936;2022-10-14T13:14:27;19.60;97.50
53904;DHT22;39812;52.430;16.936;2022-10-14T13:16:58;19.70;97.00
53904;DHT22;39812;52.430;16.936;2022-10-14T13:22:03;19.50;97.40
53904;DHT22;39812;52.430;16.936;2022-10-14T13:24:31;19.30;97.90
53904;DHT22;39812;52.430;16.936;2022-10-14T13:30:01;19.60;97.20
53904;DHT22;39812;52.430;16.936;2022-10-14T13:32:34;19.50;97.20
53904;DHT22;39812;52.430;16.936;2022-10-14T13:35:31;19.30;97.30
53904;DHT22;39812;52.430;16.936;2022-10-14T13:38:21;19.40;97.00
53904;DHT22;39812;52.430;16.936;2022-10-14T13:40:50;19.20;97.40
53904;DHT22;39812;52.430;16.936;2022-10-14T13:43:38;18.90;98.00
53904;DHT22;39812;52.430;16.936;2022-10-14T13:46:06;18.80;98.10
53904;DHT22;39812;52.430;16.936;2022-10-14T13:48:36;18.50;98.40
53904;DHT22;39812;52.430;16.936;2022-10-14T13:51:22;18.40;98.80
53904;DHT22;39812;52.430;16.936;2022-10-14T13:53:56;18.40;99.00
53904;DHT22;39812;52.430;16.936;2022-10-14T13:56:27;18.50;99.00
53904;DHT22;39812;52.430;16.936;2022-10-14T13:58:53;18.20;99.20
53904;DHT22;39812;52.430;16.936;2022-10-14T14:01:22;18.30;99.40
53904;DHT22;39812;52.430;16.936;2022-10-14T14:03:52;18.50;99.20
53904;DHT22;39812;52.430;16.936;2022-10-14T14:06:20;18.90;98.80
53904;DHT22;39812;52.430;16.936;2022-10-14T14:08:49;19.00;98.30
53904;DHT22;39812;52.430;16.936;2022-10-14T14:11:19;19.10;98.20
53904;DHT22;39812;52.430;16.936;2022-10-14T14:13:57;19.10;98.20
53904;DHT22;39812;52.430;16.936;2022-10-14T14:16:40;19.10;98.20
53904;DHT22;39812;52.430;16.936;2022-10-14T14:19:15;19.00;98.30
53904;DHT22;39812;52.430;16.936;2022-10-14T14:21:41;18.70;98.60
53904;DHT22;39812;52.430;16.936;2022-10-14T14:24:18;19.20;98.10
53904;DHT22;39812;52.430;16.936;2022-10-14T14:26:45;19.70;97.50
53904;DHT22;39812;52.430;16.936;2022-10-14T14:29:19;20.50;96.70
53904;DHT22;39812;52.430;16.936;2022-10-14T14:31:46;20.60;95.60
53904;DHT22;39812;52.430;16.936;2022-10-14T14:34:20;20.30;95.80
53904;DHT22;39812;52.430;16.936;2022-10-14T14:36:47;19.50;96.60
53904;DHT22;39812;52.430;16.936;2022-10-14T14:39:20;19.20;97.30
53904;DHT22;39812;52.430;16.936;2022-10-14T14:41:52;18.70;98.00
53904;DHT22;39812;52.430;16.936;2022-10-14T14:44:21;18.10;99.00
53904;DHT22;39812;52.430;16.936;2022-10-14T14:46:49;17.80;99.70
53904;DHT22;39812;52.430;16.936;2022-10-14T14:49:25;17.40;99.90
53904;DHT22;39812;52.430;16.936;2022-10-14T14:51:51;17.40;99.90
53904;DHT22;39812;52.430;16.936;2022-10-14T14:54:19;17.20;99.90
53904;DHT22;39812;52.430;16.936;2022-10-14T14:59:39;17.00;99.90
53904;DHT22;39812;52.430;16.936;2022-10-14T15:02:17;16.80;99.90
53904;DHT22;39812;52.430;16.936;2022-10-14T15:04:44;16.60;99.90
53904;DHT22;39812;52.430;16.936;2022-10-14T15:07:15;16.50;99.90
53904;DHT22;39812;52.430;16.936;2022-10-14T15:09:54;16.50;99.90
53904;DHT22;39812;52.430;16.936;2022-10-14T15:12:21;16.30;99.90
53904;DHT22;39812;52.430;16.936;2022-10-14T15:14:50;16.20;99.90
53904;DHT22;39812;52.430;16.936;2022-10-14T15:17:34;16.10;99.90
53904;DHT22;39812;52.430;16.936;2022-10-14T15:22:35;15.80;99.90
53904;DHT22;39812;52.430;16.936;2022-10-14T15:25:05;15.80;99.90
53904;DHT22;39812;52.430;16.936;2022-10-14T15:32:48;15.50;99.90
53904;DHT22;39812;52.430;16.936;2022-10-14T15:35:15;15.40;99.90
53904;DHT22;39812;52.430;16.936;2022-10-14T15:37:41;15.30;99.90
53904;DHT22;39812;52.430;16.936;2022-10-14T15:40:15;15.20;99.90
53904;DHT22;39812;52.430;16.936;2022-10-14T15:42:41;15.20;99.90
53904;DHT22;39812;52.430;16.936;2022-10-14T15:45:07;15.20;99.90
53904;DHT22;39812;52.430;16.936;2022-10-14T15:47:33;15.20;99.90
53904;DHT22;39812;52.430;16.936;2022-10-14T15:49:59;15.10;99.90
53904;DHT22;39812;52.430;16.936;2022-10-14T15:52:29;15.00;99.90
53904;DHT22;39812;52.430;16.936;2022-10-14T15:54:56;15.00;99.90
53904;DHT22;39812;52.430;16.936;2022-10-14T15:57:22;15.00;99.90
53904;DHT22;39812;52.430;16.936;2022-10-14T15:59:48;15.00;99.90
53904;DHT22;39812;52.430;16.936;2022-10-14T16:02:19;14.90;99.90
53904;DHT22;39812;52.430;16.936;2022-10-14T16:04:46;14.90;99.90
53904;DHT22;39812;52.430;16.936;2022-10-14T16:07:13;14.90;99.90
53904;DHT22;39812;52.430;16.936;2022-10-14T16:09:39;14.90;99.90
53904;DHT22;39812;52.430;16.936;2022-10-14T16:12:07;14.80;99.90
53904;DHT22;39812;52.430;16.936;2022-10-14T16:14:33;14.80;99.90
53904;DHT22;39812;52.430;16.936;2022-10-14T16:16:58;14.80;99.90
53904;DHT22;39812;52.430;16.936;2022-10-14T16:19:27;14.80;99.90
53904;DHT22;39812;52.430;16.936;2022-10-14T16:21:53;14.70;99.90
53904;DHT22;39812;52.430;16.936;2022-10-14T16:24:20;14.70;99.90
53904;DHT22;39812;52.430;16.936;2022-10-14T16:26:47;14.70;99.90
53904;DHT22;39812;52.430;16.936;2022-10-14T16:29:18;14.60;99.90
53904;DHT22;39812;52.430;16.936;2022-10-14T16:31:45;14.60;99.90
53904;DHT22;39812;52.430;16.936;2022-10-14T16:34:13;14.60;99.90
53904;DHT22;39812;52.430;16.936;2022-10-14T16:36:39;14.50;99.90
53904;DHT22;39812;52.430;16.936;2022-10-14T16:39:05;14.50;99.90
53904;DHT22;39812;52.430;16.936;2022-10-14T16:41:30;14.40;99.90